createdAt,value
2018-05-07T00:01:29.409Z,0
2018-05-07T00:02:29.964Z,0
2018-05-07T00:03:30.530Z,0
2018-05-07T00:04:31.066Z,0
2018-05-07T00:05:31.615Z,0
2018-05-07T00:06:32.165Z,0
2018-05-07T00:07:32.727Z,0
2018-05-07T00:08:33.252Z,0
2018-05-07T00:09:33.894Z,0
2018-05-07T00:10:34.432Z,0
2018-05-07T00:11:34.978Z,0
2018-05-07T00:12:35.439Z,0
2018-05-07T00:13:35.982Z,0
2018-05-07T00:14:36.532Z,0
2018-05-07T00:15:37.080Z,0
2018-05-07T00:16:37.626Z,0
2018-05-07T00:17:38.180Z,0
2018-05-07T00:18:38.726Z,0
2018-05-07T00:19:39.278Z,0
2018-05-07T00:20:39.887Z,0
2018-05-07T00:21:40.378Z,0
2018-05-07T00:22:40.928Z,0
2018-05-07T00:23:41.481Z,0
2018-05-07T00:24:42.023Z,0
2018-05-07T00:25:42.568Z,0
2018-05-07T00:26:43.115Z,0
2018-05-07T00:27:43.686Z,0
2018-05-07T00:28:44.215Z,0
2018-05-07T00:29:44.761Z,0
2018-05-07T00:30:45.314Z,0
2018-05-07T00:31:45.852Z,0
2018-05-07T00:32:46.401Z,0
2018-05-07T00:33:46.948Z,0
2018-05-07T00:34:47.497Z,0
2018-05-07T00:35:48.048Z,0
2018-05-07T00:36:48.595Z,0
2018-05-07T00:37:49.145Z,0
2018-05-07T00:38:49.697Z,0
2018-05-07T00:39:50.243Z,0
2018-05-07T00:40:50.788Z,0
2018-05-07T00:41:51.338Z,0
2018-05-07T00:42:51.888Z,0
2018-05-07T00:43:52.435Z,0
2018-05-07T00:44:52.977Z,0
2018-05-07T00:45:53.528Z,0
2018-05-07T00:46:54.073Z,0
2018-05-07T00:47:54.623Z,0
2018-05-07T00:48:55.170Z,0
2018-05-07T00:49:55.714Z,0
2018-05-07T00:50:56.257Z,0
2018-05-07T00:51:56.803Z,0
2018-05-07T00:52:57.356Z,0
2018-05-07T00:53:57.902Z,0
2018-05-07T00:54:58.446Z,0
2018-05-07T00:55:58.994Z,0
2018-05-07T00:56:59.542Z,0
2018-05-07T00:58:00.093Z,0
2018-05-07T00:59:00.641Z,0
2018-05-07T01:00:01.191Z,0
2018-05-07T01:01:01.740Z,0
2018-05-07T01:02:02.292Z,0
2018-05-07T01:03:02.840Z,0
2018-05-07T01:04:03.390Z,0
2018-05-07T01:05:03.936Z,0
2018-05-07T01:06:04.487Z,0
2018-05-07T01:07:05.034Z,0
2018-05-07T01:08:05.580Z,0
2018-05-07T01:09:06.128Z,0
2018-05-07T01:10:06.679Z,0
2018-05-07T01:11:07.230Z,0
2018-05-07T01:12:07.783Z,0
2018-05-07T01:13:08.334Z,0
2018-05-07T01:14:08.889Z,0
2018-05-07T01:15:09.437Z,0
2018-05-07T01:16:09.980Z,0
2018-05-07T01:17:10.530Z,0
2018-05-07T01:18:11.077Z,0
2018-05-07T01:19:11.625Z,0
2018-05-07T01:20:12.175Z,0
2018-05-07T01:21:12.724Z,0
2018-05-07T01:22:13.273Z,0
2018-05-07T01:23:13.865Z,0
2018-05-07T01:24:14.412Z,0
2018-05-07T01:25:14.958Z,0
2018-05-07T01:26:15.505Z,0
2018-05-07T01:27:16.047Z,0
2018-05-07T01:28:16.600Z,0
2018-05-07T01:29:17.146Z,0
2018-05-07T01:30:17.692Z,0
2018-05-07T01:31:18.242Z,0
2018-05-07T01:32:18.794Z,0
2018-05-07T01:33:19.336Z,0
2018-05-07T01:34:19.885Z,0
2018-05-07T01:35:20.430Z,0
2018-05-07T01:36:20.979Z,0
2018-05-07T01:37:21.530Z,0
2018-05-07T01:38:22.073Z,0
2018-05-07T01:39:22.617Z,0
2018-05-07T01:40:23.166Z,0
2018-05-07T01:41:23.714Z,0
2018-05-07T01:42:24.259Z,0
2018-05-07T01:43:24.808Z,0
2018-05-07T01:44:25.349Z,0
2018-05-07T01:45:25.894Z,0
2018-05-07T01:46:26.453Z,0
2018-05-07T01:47:26.983Z,0
2018-05-07T01:48:27.536Z,0
2018-05-07T01:49:28.086Z,0
2018-05-07T01:50:28.629Z,0
2018-05-07T01:51:29.174Z,0
2018-05-07T01:52:29.722Z,0
2018-05-07T01:53:30.274Z,0
2018-05-07T01:54:30.811Z,0
2018-05-07T01:55:31.355Z,0
2018-05-07T01:56:31.904Z,0
2018-05-07T01:57:32.450Z,0
2018-05-07T01:58:32.997Z,0
2018-05-07T01:59:33.544Z,0
2018-05-07T02:00:34.088Z,0
2018-05-07T02:01:34.636Z,0
2018-05-07T02:02:35.187Z,0
2018-05-07T02:03:35.735Z,0
2018-05-07T02:04:36.279Z,0
2018-05-07T02:05:36.825Z,0
2018-05-07T02:06:37.370Z,0
2018-05-07T02:07:37.922Z,0
2018-05-07T02:08:38.472Z,0
2018-05-07T02:09:39.022Z,0
2018-05-07T02:10:39.563Z,0
2018-05-07T02:11:40.112Z,0
2018-05-07T02:12:40.660Z,0
2018-05-07T02:13:41.212Z,0
2018-05-07T02:14:41.755Z,0
2018-05-07T02:15:42.301Z,0
2018-05-07T02:16:42.853Z,0
2018-05-07T02:17:43.408Z,0
2018-05-07T02:18:43.949Z,0
2018-05-07T02:19:44.499Z,0
2018-05-07T02:20:45.050Z,0
2018-05-07T02:21:45.595Z,0
2018-05-07T02:22:46.144Z,0
2018-05-07T02:23:46.688Z,0
2018-05-07T02:24:47.237Z,0
2018-05-07T02:25:47.783Z,0
2018-05-07T02:26:48.332Z,0
2018-05-07T02:27:48.887Z,0
2018-05-07T02:28:49.433Z,0
2018-05-07T02:29:49.987Z,0
2018-05-07T02:30:50.534Z,0
2018-05-07T02:31:51.081Z,0
2018-05-07T02:32:51.625Z,0
2018-05-07T02:33:52.176Z,0
2018-05-07T02:34:52.723Z,0
2018-05-07T02:35:53.268Z,0
2018-05-07T02:36:53.817Z,0
2018-05-07T02:37:54.365Z,0
2018-05-07T02:38:54.939Z,0
2018-05-07T02:39:55.464Z,0
2018-05-07T02:40:56.014Z,0
2018-05-07T02:41:56.562Z,0
2018-05-07T02:42:57.118Z,0
2018-05-07T02:43:57.660Z,0
2018-05-07T02:44:58.213Z,0
2018-05-07T02:45:58.754Z,0
2018-05-07T02:46:59.300Z,0
2018-05-07T02:47:59.849Z,0
2018-05-07T02:49:00.396Z,0
2018-05-07T02:50:00.942Z,0
2018-05-07T02:51:01.490Z,0
2018-05-07T02:52:02.039Z,0
2018-05-07T02:53:02.577Z,0
2018-05-07T02:54:03.124Z,0
2018-05-07T02:55:03.674Z,0
2018-05-07T02:56:04.220Z,0
2018-05-07T02:57:04.768Z,0
2018-05-07T02:58:05.317Z,0
2018-05-07T02:59:05.866Z,0
2018-05-07T03:00:06.414Z,0
2018-05-07T03:01:06.960Z,0
2018-05-07T03:02:07.512Z,0
2018-05-07T03:03:08.060Z,0
2018-05-07T03:04:08.611Z,0
2018-05-07T03:05:09.168Z,0
2018-05-07T03:06:09.700Z,0
2018-05-07T03:07:10.247Z,0
2018-05-07T03:08:10.795Z,0
2018-05-07T03:09:11.339Z,0
2018-05-07T03:10:11.881Z,0
2018-05-07T03:11:12.425Z,0
2018-05-07T03:12:13.034Z,0
2018-05-07T03:13:13.515Z,0
2018-05-07T03:14:14.064Z,0
2018-05-07T03:15:14.611Z,0
2018-05-07T03:16:15.158Z,0
2018-05-07T03:17:15.702Z,4
2018-05-07T03:18:16.249Z,4
2018-05-07T03:19:16.799Z,0
2018-05-07T03:20:17.347Z,4
2018-05-07T03:21:17.896Z,4
2018-05-07T03:22:18.443Z,0
2018-05-07T03:23:18.992Z,4
2018-05-07T03:24:19.539Z,8
2018-05-07T03:25:20.092Z,8
2018-05-07T03:26:20.636Z,8
2018-05-07T03:27:21.177Z,8
2018-05-07T03:28:21.723Z,8
2018-05-07T03:29:22.272Z,12
2018-05-07T03:30:22.818Z,16
2018-05-07T03:31:23.372Z,16
2018-05-07T03:32:23.914Z,20
2018-05-07T03:33:24.457Z,24
2018-05-07T03:34:25.008Z,28
2018-05-07T03:35:25.553Z,32
2018-05-07T03:36:26.101Z,36
2018-05-07T03:37:26.650Z,40
2018-05-07T03:38:27.197Z,48
2018-05-07T03:39:27.749Z,56
2018-05-07T03:40:28.309Z,64
2018-05-07T03:41:28.845Z,72
2018-05-07T03:42:29.395Z,84
2018-05-07T03:43:29.943Z,96
2018-05-07T03:44:30.495Z,108
2018-05-07T03:45:31.047Z,120
2018-05-07T03:46:31.600Z,140
2018-05-07T03:47:32.141Z,152
2018-05-07T03:48:32.700Z,176
2018-05-07T03:49:33.238Z,196
2018-05-07T03:50:33.786Z,216
2018-05-07T03:51:34.343Z,236
2018-05-07T03:52:34.886Z,260
2018-05-07T03:53:35.438Z,288
2018-05-07T03:54:35.990Z,316
2018-05-07T03:55:36.537Z,348
2018-05-07T03:56:37.089Z,380
2018-05-07T03:57:37.635Z,412
2018-05-07T03:58:38.189Z,448
2018-05-07T03:59:38.799Z,488
2018-05-07T04:00:39.287Z,524
2018-05-07T04:01:39.835Z,564
2018-05-07T04:02:40.381Z,608
2018-05-07T04:03:40.934Z,652
2018-05-07T04:04:41.487Z,696
2018-05-07T04:05:42.033Z,748
2018-05-07T04:06:42.586Z,796
2018-05-07T04:07:43.138Z,844
2018-05-07T04:08:43.691Z,900
2018-05-07T04:09:44.314Z,948
2018-05-07T04:10:44.785Z,1004
2018-05-07T04:11:45.343Z,1060
2018-05-07T04:12:45.885Z,1116
2018-05-07T04:13:46.436Z,1172
2018-05-07T04:14:46.986Z,1228
2018-05-07T04:15:47.540Z,1288
2018-05-07T04:16:48.091Z,1348
2018-05-07T04:17:48.641Z,1408
2018-05-07T04:18:49.195Z,1464
2018-05-07T04:19:49.743Z,1524
2018-05-07T04:20:50.290Z,1584
2018-05-07T04:21:50.845Z,1644
2018-05-07T04:22:51.399Z,1708
2018-05-07T04:23:51.948Z,1764
2018-05-07T04:24:52.502Z,1824
2018-05-07T04:25:53.052Z,1884
2018-05-07T04:26:53.602Z,1948
2018-05-07T04:27:54.153Z,2008
2018-05-07T04:28:54.708Z,2064
2018-05-07T04:29:55.258Z,2112
2018-05-07T04:30:55.809Z,2176
2018-05-07T04:31:56.366Z,2240
2018-05-07T04:32:56.910Z,2316
2018-05-07T04:33:57.462Z,2392
2018-05-07T04:34:58.016Z,2476
2018-05-07T04:35:58.567Z,2568
2018-05-07T04:36:59.120Z,2756
2018-05-07T04:37:59.672Z,2848
2018-05-07T04:39:00.225Z,3220
2018-05-07T04:40:00.774Z,3644
2018-05-07T04:41:01.329Z,3484
2018-05-07T04:42:01.880Z,3136
2018-05-07T04:43:02.429Z,3324
2018-05-07T04:44:02.985Z,3972
2018-05-07T04:45:03.542Z,4448
2018-05-07T04:46:04.096Z,4464
2018-05-07T04:47:04.652Z,4544
2018-05-07T04:48:05.209Z,4412
2018-05-07T04:49:05.759Z,4392
2018-05-07T04:50:06.315Z,4652
2018-05-07T04:51:06.865Z,4188
2018-05-07T04:52:07.423Z,4332
2018-05-07T04:53:07.981Z,4380
2018-05-07T04:54:08.534Z,3984
2018-05-07T04:55:09.156Z,4260
2018-05-07T04:56:09.639Z,5072
2018-05-07T04:57:10.196Z,5516
2018-05-07T04:58:10.754Z,5012
2018-05-07T04:59:11.306Z,4888
2018-05-07T05:00:11.862Z,5784
2018-05-07T05:01:12.417Z,6700
2018-05-07T05:02:12.972Z,6796
2018-05-07T05:03:13.528Z,6416
2018-05-07T05:04:14.082Z,5596
2018-05-07T05:05:14.640Z,5720
2018-05-07T05:06:15.232Z,6736
2018-05-07T05:07:15.825Z,7680
2018-05-07T05:08:16.321Z,7960
2018-05-07T05:09:16.884Z,8208
2018-05-07T05:10:17.445Z,8280
2018-05-07T05:11:18.008Z,8316
2018-05-07T05:12:18.566Z,8540
2018-05-07T05:13:19.132Z,8868
2018-05-07T05:14:19.696Z,8988
2018-05-07T05:15:20.256Z,8968
2018-05-07T05:16:20.819Z,9100
2018-05-07T05:17:21.378Z,9304
2018-05-07T05:18:21.940Z,9548
2018-05-07T05:19:22.500Z,9728
2018-05-07T05:20:23.067Z,8696
2018-05-07T05:21:23.642Z,6548
2018-05-07T05:22:24.196Z,5108
2018-05-07T05:23:24.755Z,5064
2018-05-07T05:24:25.317Z,5144
2018-05-07T05:25:25.878Z,5904
2018-05-07T05:26:26.432Z,8464
2018-05-07T05:27:27.016Z,10928
2018-05-07T05:28:27.550Z,11476
2018-05-07T05:29:28.114Z,11512
2018-05-07T05:30:28.684Z,11624
2018-05-07T05:31:29.244Z,12028
2018-05-07T05:32:29.809Z,10556
2018-05-07T05:33:30.369Z,7620
2018-05-07T05:34:30.934Z,6068
2018-05-07T05:35:31.498Z,8564
2018-05-07T05:36:32.057Z,11928
2018-05-07T05:37:32.625Z,13400
2018-05-07T05:38:33.191Z,13524
2018-05-07T05:39:33.752Z,13792
2018-05-07T05:40:34.312Z,14020
2018-05-07T05:41:34.877Z,14052
2018-05-07T05:42:35.447Z,14036
2018-05-07T05:43:36.042Z,14156
2018-05-07T05:44:36.575Z,13696
2018-05-07T05:45:37.140Z,10412
2018-05-07T05:46:37.708Z,6988
2018-05-07T05:47:38.274Z,8440
2018-05-07T05:48:38.891Z,12624
2018-05-07T05:49:39.463Z,15884
2018-05-07T05:50:40.026Z,16664
2018-05-07T05:51:40.594Z,16692
2018-05-07T05:52:41.162Z,13420
2018-05-07T05:53:41.725Z,9572
2018-05-07T05:54:42.287Z,11652
2018-05-07T05:55:42.855Z,16684
2018-05-07T05:56:43.421Z,18528
2018-05-07T05:57:43.992Z,18368
2018-05-07T05:58:44.553Z,18176
2018-05-07T05:59:45.118Z,18208
2018-05-07T06:00:45.687Z,18816
2018-05-07T06:01:46.259Z,19392
2018-05-07T06:02:46.830Z,19616
2018-05-07T06:03:47.469Z,19776
2018-05-07T06:04:47.962Z,20064
2018-05-07T06:05:48.535Z,20608
2018-05-07T06:06:49.104Z,21248
2018-05-07T06:07:49.679Z,21664
2018-05-07T06:08:50.245Z,21728
2018-05-07T06:09:50.873Z,21888
2018-05-07T06:10:51.449Z,22368
2018-05-07T06:11:52.020Z,22816
2018-05-07T06:12:52.588Z,23008
2018-05-07T06:13:53.156Z,23456
2018-05-07T06:14:53.940Z,24000
2018-05-07T06:15:54.292Z,24352
2018-05-07T06:16:54.861Z,24288
2018-05-07T06:17:55.429Z,24288
2018-05-07T06:18:56.002Z,24800
2018-05-07T06:19:56.573Z,25472
2018-05-07T06:20:57.144Z,26528
2018-05-07T06:21:57.718Z,27168
2018-05-07T06:22:58.281Z,27168
2018-05-07T06:23:58.847Z,26400
2018-05-07T06:24:59.420Z,25856
2018-05-07T06:25:59.990Z,26816
2018-05-07T06:27:00.565Z,28064
2018-05-07T06:28:01.135Z,28448
2018-05-07T06:29:01.706Z,28288
2018-05-07T06:30:02.271Z,28032
2018-05-07T06:31:02.841Z,28544
2018-05-07T06:32:03.416Z,29280
2018-05-07T06:33:03.987Z,29568
2018-05-07T06:34:04.558Z,29504
2018-05-07T06:35:05.131Z,29440
2018-05-07T06:36:05.713Z,29952
2018-05-07T06:37:06.283Z,30784
2018-05-07T06:38:06.854Z,32192
2018-05-07T06:39:07.426Z,33376
2018-05-07T06:40:07.994Z,33952
2018-05-07T06:41:08.569Z,33728
2018-05-07T06:42:09.144Z,33056
2018-05-07T06:43:09.714Z,32608
2018-05-07T06:44:10.287Z,32576
2018-05-07T06:45:10.850Z,32864
2018-05-07T06:46:11.417Z,34336
2018-05-07T06:47:11.989Z,35776
2018-05-07T06:48:12.562Z,37280
2018-05-07T06:49:13.139Z,38272
2018-05-07T06:50:13.709Z,38080
2018-05-07T06:51:14.281Z,38240
2018-05-07T06:52:14.996Z,37984
2018-05-07T06:53:15.416Z,37472
2018-05-07T06:54:15.993Z,36864
2018-05-07T06:55:16.565Z,35904
2018-05-07T06:56:17.133Z,35808
2018-05-07T06:57:17.707Z,36800
2018-05-07T06:58:18.280Z,37760
2018-05-07T06:59:18.850Z,38528
2018-05-07T07:00:19.446Z,39488
2018-05-07T07:01:19.993Z,39840
2018-05-07T07:02:20.653Z,40128
2018-05-07T07:03:21.131Z,39744
2018-05-07T07:04:21.707Z,39520
2018-05-07T07:05:22.278Z,40128
2018-05-07T07:06:22.848Z,40928
2018-05-07T07:07:23.471Z,41440
2018-05-07T07:08:24.159Z,42048
2018-05-07T07:09:24.552Z,42464
2018-05-07T07:10:25.124Z,41984
2018-05-07T07:11:25.697Z,41696
2018-05-07T07:12:26.268Z,41888
2018-05-07T07:13:26.836Z,41728
2018-05-07T07:14:27.413Z,41440
2018-05-07T07:15:27.986Z,41344
2018-05-07T07:16:28.566Z,41696
2018-05-07T07:17:29.127Z,42592
2018-05-07T07:18:29.694Z,43456
2018-05-07T07:19:30.268Z,44992
2018-05-07T07:20:30.843Z,46880
2018-05-07T07:21:31.415Z,47296
2018-05-07T07:22:31.986Z,46336
2018-05-07T07:23:32.553Z,46496
2018-05-07T07:24:33.125Z,48096
2018-05-07T07:25:33.698Z,49664
2018-05-07T07:26:34.268Z,50976
2018-05-07T07:27:34.845Z,51936
2018-05-07T07:28:35.421Z,51328
2018-05-07T07:29:35.987Z,49120
2018-05-07T07:30:36.558Z,46880
2018-05-07T07:31:37.123Z,45344
2018-05-07T07:32:37.698Z,44448
2018-05-07T07:33:38.348Z,45632
2018-05-07T07:34:38.835Z,48256
2018-05-07T07:35:39.405Z,51296
2018-05-07T07:36:39.979Z,53472
2018-05-07T07:37:40.553Z,54240
2018-05-07T07:38:41.129Z,54176
2018-05-07T07:39:41.696Z,54112
2018-05-07T07:40:42.263Z,54304
2018-05-07T07:41:42.832Z,54880
2018-05-07T07:42:43.406Z,54752
2018-05-07T07:43:43.976Z,52800
2018-05-07T07:44:44.551Z,50752
2018-05-07T07:45:45.130Z,50912
2018-05-07T07:46:45.702Z,52928
2018-05-07T07:47:46.277Z,56864
2018-05-07T07:48:46.847Z,59872
2018-05-07T07:49:47.420Z,59648
2018-05-07T07:50:47.988Z,57120
2018-05-07T07:51:48.561Z,53312
2018-05-07T07:52:49.133Z,51840
2018-05-07T07:53:49.713Z,53664
2018-05-07T07:54:50.279Z,55968
2018-05-07T07:55:50.859Z,57344
2018-05-07T07:56:51.432Z,57056
2018-05-07T07:57:52.012Z,57312
2018-05-07T07:58:52.590Z,59328
2018-05-07T07:59:53.164Z,60448
2018-05-07T08:00:53.729Z,65344
2018-05-07T08:01:54.301Z,68704
2018-05-07T08:02:54.872Z,68864
2018-05-07T08:03:55.496Z,64864
2018-05-07T08:04:56.069Z,61952
2018-05-07T08:05:56.641Z,61152
2018-05-07T08:06:57.218Z,63136
2018-05-07T08:07:57.789Z,66368
2018-05-07T08:08:58.369Z,69664
2018-05-07T08:09:58.945Z,72096
2018-05-07T08:10:59.508Z,70912
2018-05-07T08:12:00.143Z,69056
2018-05-07T08:13:00.650Z,68448
2018-05-07T08:14:01.221Z,68896
2018-05-07T08:15:01.804Z,68992
2018-05-07T08:16:02.383Z,69216
2018-05-07T08:17:02.953Z,67904
2018-05-07T08:18:03.526Z,65856
2018-05-07T08:19:04.102Z,64032
2018-05-07T08:20:04.882Z,64352
2018-05-07T08:21:05.455Z,67328
2018-05-07T08:22:06.026Z,70688
2018-05-07T08:23:06.598Z,75104
2018-05-07T08:24:07.177Z,76128
2018-05-07T08:25:07.745Z,74752
2018-05-07T08:26:08.327Z,70400
2018-05-07T08:27:08.893Z,66656
2018-05-07T08:28:09.466Z,65760
2018-05-07T08:29:10.035Z,68128
2018-05-07T08:30:10.601Z,71456
2018-05-07T08:31:11.170Z,75456
2018-05-07T08:32:11.747Z,76480
2018-05-07T08:33:12.315Z,75296
2018-05-07T08:34:12.885Z,74144
2018-05-07T08:35:13.455Z,72576
2018-05-07T08:36:14.028Z,72384
2018-05-07T08:37:14.605Z,72896
2018-05-07T08:38:15.179Z,72992
2018-05-07T08:39:15.756Z,73120
2018-05-07T08:40:16.535Z,73856
2018-05-07T08:41:17.111Z,73856
2018-05-07T08:42:17.694Z,74400
2018-05-07T08:43:18.253Z,75264
2018-05-07T08:44:18.824Z,74368
2018-05-07T08:45:19.391Z,73024
2018-05-07T08:46:19.985Z,71456
2018-05-07T08:47:20.558Z,72608
2018-05-07T08:48:21.143Z,76032
2018-05-07T08:49:21.712Z,79168
2018-05-07T08:50:22.343Z,79648
2018-05-07T08:51:22.848Z,78592
2018-05-07T08:52:23.418Z,77568
2018-05-07T08:53:23.988Z,75552
2018-05-07T08:54:24.561Z,78496
2018-05-07T08:55:25.127Z,84000
2018-05-07T08:56:25.692Z,89120
2018-05-07T08:57:26.260Z,89952
2018-05-07T08:58:26.824Z,85728
2018-05-07T08:59:27.395Z,81536
2018-05-07T09:00:28.171Z,80416
2018-05-07T09:01:28.741Z,82720
2018-05-07T09:02:29.322Z,88576
2018-05-07T09:03:29.902Z,91648
2018-05-07T09:04:30.470Z,90880
2018-05-07T09:05:31.047Z,87744
2018-05-07T09:06:31.623Z,84064
2018-05-07T09:07:32.200Z,81280
2018-05-07T09:08:32.766Z,81632
2018-05-07T09:09:33.342Z,81376
2018-05-07T09:10:33.919Z,79744
2018-05-07T09:11:34.489Z,77792
2018-05-07T09:12:35.065Z,77184
2018-05-07T09:13:35.699Z,79456
2018-05-07T09:14:36.206Z,83232
2018-05-07T09:15:36.773Z,86272
2018-05-07T09:16:37.345Z,88096
2018-05-07T09:17:37.920Z,87168
2018-05-07T09:18:38.506Z,84800
2018-05-07T09:19:39.093Z,86048
2018-05-07T09:20:39.684Z,88512
2018-05-07T09:21:40.264Z,90304
2018-05-07T09:22:40.844Z,89952
2018-05-07T09:23:41.426Z,90528
2018-05-07T09:24:42.036Z,91712
2018-05-07T09:25:42.559Z,91936
2018-05-07T09:26:43.131Z,90752
2018-05-07T09:27:43.703Z,87424
2018-05-07T09:28:44.271Z,84992
2018-05-07T09:29:44.846Z,88032
2018-05-07T09:30:45.417Z,92416
2018-05-07T09:31:45.989Z,95456
2018-05-07T09:32:46.560Z,93824
2018-05-07T09:33:47.130Z,89472
2018-05-07T09:34:47.695Z,87264
2018-05-07T09:35:48.267Z,87904
2018-05-07T09:36:48.836Z,86528
2018-05-07T09:37:49.404Z,83616
2018-05-07T09:38:49.976Z,84448
2018-05-07T09:39:50.548Z,86912
2018-05-07T09:40:51.125Z,90144
2018-05-07T09:41:51.692Z,94528
2018-05-07T09:42:52.263Z,96032
2018-05-07T09:43:52.832Z,94336
2018-05-07T09:44:53.396Z,90816
2018-05-07T09:45:53.972Z,88192
2018-05-07T09:46:54.541Z,90112
2018-05-07T09:47:55.121Z,93248
2018-05-07T09:48:55.688Z,98656
2018-05-07T09:49:56.249Z,101984
2018-05-07T09:50:56.823Z,100416
2018-05-07T09:51:57.386Z,96416
2018-05-07T09:52:57.969Z,92960
2018-05-07T09:53:58.536Z,88352
2018-05-07T09:54:59.117Z,89408
2018-05-07T09:55:59.685Z,92192
2018-05-07T09:57:00.297Z,93440
2018-05-07T09:58:00.843Z,93376
2018-05-07T09:59:01.415Z,94976
2018-05-07T10:00:01.991Z,96512
2018-05-07T10:01:02.558Z,95424
2018-05-07T10:02:03.124Z,95456
2018-05-07T10:03:03.693Z,94400
2018-05-07T10:04:04.273Z,90560
2018-05-07T10:05:04.861Z,86848
2018-05-07T10:06:05.424Z,86976
2018-05-07T10:07:06.004Z,86752
2018-05-07T10:08:06.578Z,88416
2018-05-07T10:09:07.148Z,93984
2018-05-07T10:10:07.728Z,97536
2018-05-07T10:11:08.317Z,99040
2018-05-07T10:12:08.898Z,96896
2018-05-07T10:13:09.490Z,91008
2018-05-07T10:14:10.276Z,84416
2018-05-07T10:15:10.865Z,83264
2018-05-07T10:16:11.452Z,91424
2018-05-07T10:17:12.046Z,102176
2018-05-07T10:18:12.830Z,109120
2018-05-07T10:19:13.533Z,108320
2018-05-07T10:20:14.118Z,102368
2018-05-07T10:21:14.692Z,93120
2018-05-07T10:22:15.277Z,88864
2018-05-07T10:23:15.865Z,93280
2018-05-07T10:24:16.512Z,104416
2018-05-07T10:25:17.012Z,113120
2018-05-07T10:26:17.586Z,114816
2018-05-07T10:27:18.165Z,109888
2018-05-07T10:28:18.741Z,101376
2018-05-07T10:29:19.324Z,97984
2018-05-07T10:30:19.896Z,106112
2018-05-07T10:31:20.473Z,115744
2018-05-07T10:32:21.056Z,123136
2018-05-07T10:33:21.644Z,122752
2018-05-07T10:34:22.230Z,117632
2018-05-07T10:35:22.832Z,113856
2018-05-07T10:36:23.394Z,114048
2018-05-07T10:37:23.975Z,115392
2018-05-07T10:38:24.559Z,117440
2018-05-07T10:39:25.192Z,116896
2018-05-07T10:40:25.734Z,116000
2018-05-07T10:41:26.323Z,113760
2018-05-07T10:42:26.909Z,111520
2018-05-07T10:43:27.491Z,111424
2018-05-07T10:44:28.069Z,115168
2018-05-07T10:45:28.643Z,119296
2018-05-07T10:46:29.223Z,119456
2018-05-07T10:47:29.811Z,116224
2018-05-07T10:48:30.391Z,112128
2018-05-07T10:49:30.975Z,111776
2018-05-07T10:50:31.558Z,113440
2018-05-07T10:51:32.137Z,113216
2018-05-07T10:52:32.704Z,111968
2018-05-07T10:53:33.291Z,110016
2018-05-07T10:54:33.862Z,107520
2018-05-07T10:55:34.446Z,108000
2018-05-07T10:56:35.033Z,111616
2018-05-07T10:57:35.622Z,113952
2018-05-07T10:58:36.206Z,113888
2018-05-07T11:00:52.257Z,116000
2018-05-07T11:01:52.836Z,116160
2018-05-07T11:02:53.417Z,116160
2018-05-07T11:03:53.984Z,116608
2018-05-07T11:04:54.559Z,116384
2018-05-07T11:05:55.131Z,114208
2018-05-07T11:06:55.714Z,111360
2018-05-07T11:07:56.296Z,111104
2018-05-07T11:08:56.858Z,111904
2018-05-07T11:09:57.441Z,113952
2018-05-07T11:10:58.014Z,115904
2018-05-07T11:11:58.589Z,115360
2018-05-07T11:12:59.163Z,109824
2018-05-07T11:13:59.734Z,103520
2018-05-07T11:15:00.366Z,104192
2018-05-07T11:16:00.951Z,109344
2018-05-07T11:17:01.525Z,115456
2018-05-07T11:18:02.113Z,118784
2018-05-07T11:19:02.678Z,117024
2018-05-07T11:20:03.258Z,110848
2018-05-07T11:21:03.827Z,105504
2018-05-07T11:22:04.405Z,104992
2018-05-07T11:23:04.974Z,107456
2018-05-07T11:24:05.547Z,110368
2018-05-07T11:25:06.118Z,109056
2018-05-07T11:26:06.695Z,104384
2018-05-07T11:27:07.262Z,99456
2018-05-07T11:28:07.828Z,98304
2018-05-07T11:29:08.401Z,99328
2018-05-07T11:30:08.969Z,104352
2018-05-07T11:31:09.605Z,107648
2018-05-07T11:32:10.102Z,104768
2018-05-07T11:33:10.672Z,98976
2018-05-07T11:34:11.249Z,92544
2018-05-07T11:35:11.825Z,86464
2018-05-07T11:36:12.394Z,84256
2018-05-07T11:37:12.968Z,88352
2018-05-07T11:38:13.543Z,93312
2018-05-07T11:39:14.109Z,96064
2018-05-07T11:40:14.684Z,95488
2018-05-07T11:41:34.459Z,93568
2018-05-07T11:42:35.032Z,92800
2018-05-07T11:43:35.607Z,95616
2018-05-07T11:44:36.179Z,100704
2018-05-07T11:45:36.757Z,103232
2018-05-07T11:46:37.339Z,104544
2018-05-07T11:47:38.012Z,105952
2018-05-07T11:48:38.474Z,104320
2018-05-07T11:49:39.053Z,101792
2018-05-07T11:50:39.636Z,98592
2018-05-07T11:51:40.219Z,97088
2018-05-07T11:52:40.793Z,98016
2018-05-07T11:53:41.369Z,101728
2018-05-07T11:54:41.947Z,104320
2018-05-07T11:55:42.520Z,104192
2018-05-07T11:56:43.093Z,102688
2018-05-07T11:57:43.672Z,97152
2018-05-07T11:58:44.245Z,94464
2018-05-07T11:59:44.820Z,94592
2018-05-07T12:00:45.421Z,93312
2018-05-07T12:01:45.970Z,94208
2018-05-07T12:02:46.634Z,95840
2018-05-07T12:03:47.107Z,100736
2018-05-07T12:04:47.688Z,102944
2018-05-07T12:05:48.262Z,105152
2018-05-07T12:06:48.848Z,108832
2018-05-07T12:07:49.419Z,109280
2018-05-07T12:08:49.992Z,106752
2018-05-07T12:09:50.571Z,103296
2018-05-07T12:10:51.141Z,101888
2018-05-07T12:11:51.720Z,104064
2018-05-07T12:12:52.303Z,108256
2018-05-07T12:13:53.087Z,111360
2018-05-07T12:14:53.667Z,113152
2018-05-07T12:15:54.260Z,113472
2018-05-07T12:16:54.808Z,111968
2018-05-07T12:17:55.391Z,109248
2018-05-07T12:18:55.963Z,106752
2018-05-07T12:19:56.546Z,102464
2018-05-07T12:20:57.131Z,100384
2018-05-07T12:21:57.730Z,100160
2018-05-07T12:22:58.412Z,100320
2018-05-07T12:23:58.905Z,102240
2018-05-07T12:24:59.486Z,101664
2018-05-07T12:26:00.086Z,98240
2018-05-07T12:27:00.661Z,93184
2018-05-07T12:28:01.248Z,90720
2018-05-07T12:29:01.822Z,95488
2018-05-07T12:30:02.391Z,101120
2018-05-07T12:31:02.969Z,101984
2018-05-07T12:32:03.548Z,103008
2018-05-07T12:33:04.127Z,101216
2018-05-07T12:34:04.703Z,98592
2018-05-07T12:35:05.280Z,101152
2018-05-07T12:36:05.850Z,109824
2018-05-07T12:37:06.431Z,115392
2018-05-07T12:38:07.000Z,117728
2018-05-07T12:39:07.572Z,113344
2018-05-07T12:40:08.160Z,104992
2018-05-07T12:41:08.781Z,98944
2018-05-07T12:42:09.347Z,94272
2018-05-07T12:43:09.927Z,93504
2018-05-07T12:44:10.500Z,95840
2018-05-07T12:45:11.089Z,97024
2018-05-07T12:46:11.658Z,97024
2018-05-07T12:47:12.234Z,95808
2018-05-07T12:48:12.904Z,95008
2018-05-07T12:49:13.399Z,94624
2018-05-07T12:50:14.179Z,98464
2018-05-07T12:51:14.843Z,102752
2018-05-07T12:52:15.538Z,101536
2018-05-07T12:53:16.117Z,98784
2018-05-07T12:54:16.688Z,96416
2018-05-07T12:55:17.278Z,93248
2018-05-07T12:56:17.849Z,91488
2018-05-07T12:57:18.495Z,91936
2018-05-07T12:58:19.116Z,90400
2018-05-07T12:59:19.723Z,90272
2018-05-07T13:00:20.295Z,93760
2018-05-07T13:01:20.877Z,96352
2018-05-07T13:02:21.470Z,96480
2018-05-07T13:03:22.186Z,95040
2018-05-07T13:04:22.744Z,95552
2018-05-07T13:05:23.327Z,95040
2018-05-07T13:06:23.894Z,93920
2018-05-07T13:07:24.475Z,91776
2018-05-07T13:08:25.059Z,91360
2018-05-07T13:09:25.652Z,92128
2018-05-07T13:10:26.234Z,93056
2018-05-07T13:11:26.956Z,91584
2018-05-07T13:12:27.473Z,90048
2018-05-07T13:13:28.058Z,92352
2018-05-07T13:14:28.624Z,92960
2018-05-07T13:15:29.283Z,89440
2018-05-07T13:16:29.785Z,88096
2018-05-07T13:17:30.377Z,89152
2018-05-07T13:18:30.924Z,92352
2018-05-07T13:19:31.569Z,98528
2018-05-07T13:20:32.162Z,101408
2018-05-07T13:21:32.733Z,98592
2018-05-07T13:22:33.328Z,93088
2018-05-07T13:23:33.920Z,85728
2018-05-07T13:24:34.492Z,81440
2018-05-07T13:25:35.079Z,80576
2018-05-07T13:26:35.662Z,82368
2018-05-07T13:27:36.256Z,87040
2018-05-07T13:28:37.164Z,88992
2018-05-07T13:29:37.638Z,90784
2018-05-07T13:30:38.217Z,90240
2018-05-07T13:31:38.798Z,88032